sensor_id;sensor_type;location;lat;lon;timestamp;P1;durP1;ratioP1;P2;durP2;ratioP2
34152;SDS011;20426;48.372;10.888;2024-01-06T00:00:17;1.95;;;1.60;;
34152;SDS011;20426;48.372;10.888;2024-01-06T00:00:48;4.05;;;2.45;;
34152;SDS011;20426;48.372;10.888;2024-01-06T00:01:19;1.73;;;1.55;;
34152;SDS011;20426;48.372;10.888;2024-01-06T00:01:50;3.90;;;2.00;;
34152;SDS011;20426;48.372;10.888;2024-01-06T00:02:21;3.55;;;2.25;;
34152;SDS011;20426;48.372;10.888;2024-01-06T00:02:51;3.42;;;1.90;;
34152;SDS011;20426;48.372;10.888;2024-01-06T00:03:22;4.38;;;2.00;;
34152;SDS011;20426;48.372;10.888;2024-01-06T00:03:53;2.10;;;1.77;;
34152;SDS011;20426;48.372;10.888;2024-01-06T00:04:23;1.52;;;1.42;;
34152;SDS011;20426;48.372;10.888;2024-01-06T00:04:54;3.88;;;2.30;;
34152;SDS011;20426;48.372;10.888;2024-01-06T00:05:25;3.65;;;1.65;;
34152;SDS011;20426;48.372;10.888;2024-01-06T00:05:55;2.50;;;2.05;;
34152;SDS011;20426;48.372;10.888;2024-01-06T00:06:26;3.38;;;1.90;;
34152;SDS011;20426;48.372;10.888;2024-01-06T00:06:57;1.88;;;1.65;;
34152;SDS011;20426;48.372;10.888;2024-01-06T00:07:28;2.88;;;1.83;;
34152;SDS011;20426;48.372;10.888;2024-01-06T00:07:58;2.65;;;1.80;;
34152;SDS011;20426;48.372;10.888;2024-01-06T00:08:29;3.95;;;2.42;;
34152;SDS011;20426;48.372;10.888;2024-01-06T00:09:00;3.05;;;2.20;;
34152;SDS011;20426;48.372;10.888;2024-01-06T00:09:31;2.88;;;2.05;;
34152;SDS011;20426;48.372;10.888;2024-01-06T00:10:01;3.78;;;2.40;;
34152;SDS011;20426;48.372;10.888;2024-01-06T00:10:32;3.08;;;1.95;;
34152;SDS011;20426;48.372;10.888;2024-01-06T00:11:03;2.63;;;1.77;;
34152;SDS011;20426;48.372;10.888;2024-01-06T00:11:33;2.13;;;1.73;;
34152;SDS011;20426;48.372;10.888;2024-01-06T00:12:04;2.13;;;1.90;;
34152;SDS011;20426;48.372;10.888;2024-01-06T00:12:35;2.53;;;1.83;;
34152;SDS011;20426;48.372;10.888;2024-01-06T00:13:06;3.90;;;2.47;;
34152;SDS011;20426;48.372;10.888;2024-01-06T00:13:37;2.55;;;1.83;;
34152;SDS011;20426;48.372;10.888;2024-01-06T00:14:07;3.47;;;2.35;;
34152;SDS011;20426;48.372;10.888;2024-01-06T00:14:38;2.47;;;1.55;;
34152;SDS011;20426;48.372;10.888;2024-01-06T00:15:12;4.18;;;2.50;;
34152;SDS011;20426;48.372;10.888;2024-01-06T00:15:42;3.55;;;2.28;;
34152;SDS011;20426;48.372;10.888;2024-01-06T00:16:16;4.50;;;3.00;;
34152;SDS011;20426;48.372;10.888;2024-01-06T00:16:48;2.15;;;1.90;;
34152;SDS011;20426;48.372;10.888;2024-01-06T00:17:18;2.65;;;2.22;;
34152;SDS011;20426;48.372;10.888;2024-01-06T00:17:49;2.65;;;1.98;;
34152;SDS011;20426;48.372;10.888;2024-01-06T00:18:20;2.90;;;2.25;;
34152;SDS011;20426;48.372;10.888;2024-01-06T00:18:50;2.85;;;1.95;;
34152;SDS011;20426;48.372;10.888;2024-01-06T00:19:21;3.70;;;2.33;;
34152;SDS011;20426;48.372;10.888;2024-01-06T00:19:52;3.47;;;1.70;;
34152;SDS011;20426;48.372;10.888;2024-01-06T00:20:23;2.60;;;1.90;;
34152;SDS011;20426;48.372;10.888;2024-01-06T00:20:53;4.85;;;2.55;;
34152;SDS011;20426;48.372;10.888;2024-01-06T00:21:24;3.35;;;1.85;;
34152;SDS011;20426;48.372;10.888;2024-01-06T00:21:55;2.20;;;2.00;;
34152;SDS011;20426;48.372;10.888;2024-01-06T00:22:25;2.22;;;1.77;;
34152;SDS011;20426;48.372;10.888;2024-01-06T00:22:56;2.63;;;2.00;;
34152;SDS011;20426;48.372;10.888;2024-01-06T00:23:29;3.03;;;2.50;;
34152;SDS011;20426;48.372;10.888;2024-01-06T00:23:59;2.30;;;1.80;;
34152;SDS011;20426;48.372;10.888;2024-01-06T00:24:30;4.43;;;2.30;;
34152;SDS011;20426;48.372;10.888;2024-01-06T00:25:01;4.15;;;1.88;;
34152;SDS011;20426;48.372;10.888;2024-01-06T00:25:32;2.78;;;2.17;;
34152;SDS011;20426;48.372;10.888;2024-01-06T00:26:03;2.88;;;1.98;;
34152;SDS011;20426;48.372;10.888;2024-01-06T00:26:34;2.47;;;2.00;;
34152;SDS011;20426;48.372;10.888;2024-01-06T00:27:05;4.35;;;2.10;;
34152;SDS011;20426;48.372;10.888;2024-01-06T00:27:35;2.55;;;2.08;;
34152;SDS011;20426;48.372;10.888;2024-01-06T00:28:06;2.00;;;1.80;;
34152;SDS011;20426;48.372;10.888;2024-01-06T00:28:37;3.60;;;2.00;;
34152;SDS011;20426;48.372;10.888;2024-01-06T00:29:11;2.63;;;2.40;;
34152;SDS011;20426;48.372;10.888;2024-01-06T00:29:41;2.75;;;2.25;;
34152;SDS011;20426;48.372;10.888;2024-01-06T00:30:12;2.15;;;1.98;;
34152;SDS011;20426;48.372;10.888;2024-01-06T00:30:43;2.30;;;1.65;;
34152;SDS011;20426;48.372;10.888;2024-01-06T00:31:13;3.08;;;2.25;;
34152;SDS011;20426;48.372;10.888;2024-01-06T00:31:46;3.92;;;2.72;;
34152;SDS011;20426;48.372;10.888;2024-01-06T00:32:16;3.70;;;2.40;;
34152;SDS011;20426;48.372;10.888;2024-01-06T00:32:47;3.83;;;2.40;;
34152;SDS011;20426;48.372;10.888;2024-01-06T00:33:18;2.50;;;2.30;;
34152;SDS011;20426;48.372;10.888;2024-01-06T00:33:48;2.70;;;2.10;;
34152;SDS011;20426;48.372;10.888;2024-01-06T00:34:19;3.28;;;2.45;;
34152;SDS011;20426;48.372;10.888;2024-01-06T00:34:50;3.80;;;2.45;;
34152;SDS011;20426;48.372;10.888;2024-01-06T00:35:20;2.88;;;2.58;;
34152;SDS011;20426;48.372;10.888;2024-01-06T00:35:51;3.33;;;2.22;;
34152;SDS011;20426;48.372;10.888;2024-01-06T00:36:22;3.45;;;2.60;;
34152;SDS011;20426;48.372;10.888;2024-01-06T00:36:52;2.70;;;1.83;;
34152;SDS011;20426;48.372;10.888;2024-01-06T00:37:23;5.38;;;2.90;;
34152;SDS011;20426;48.372;10.888;2024-01-06T00:37:54;2.83;;;2.15;;
34152;SDS011;20426;48.372;10.888;2024-01-06T00:38:25;3.42;;;2.53;;
34152;SDS011;20426;48.372;10.888;2024-01-06T00:38:56;3.05;;;2.50;;
34152;SDS011;20426;48.372;10.888;2024-01-06T00:39:27;2.80;;;2.05;;
34152;SDS011;20426;48.372;10.888;2024-01-06T00:39:57;3.25;;;2.22;;
34152;SDS011;20426;48.372;10.888;2024-01-06T00:40:28;5.43;;;2.45;;
34152;SDS011;20426;48.372;10.888;2024-01-06T00:40:59;3.03;;;1.70;;
34152;SDS011;20426;48.372;10.888;2024-01-06T00:41:29;3.40;;;2.17;;
34152;SDS011;20426;48.372;10.888;2024-01-06T00:42:00;4.40;;;1.85;;
34152;SDS011;20426;48.372;10.888;2024-01-06T00:42:31;3.50;;;2.30;;
34152;SDS011;20426;48.372;10.888;2024-01-06T00:43:01;3.13;;;1.88;;
34152;SDS011;20426;48.372;10.888;2024-01-06T00:43:32;2.40;;;1.90;;
34152;SDS011;20426;48.372;10.888;2024-01-06T00:44:03;4.25;;;2.30;;
34152;SDS011;20426;48.372;10.888;2024-01-06T00:44:35;3.13;;;2.28;;
34152;SDS011;20426;48.372;10.888;2024-01-06T00:45:06;3.65;;;1.85;;
34152;SDS011;20426;48.372;10.888;2024-01-06T00:45:37;3.60;;;2.55;;
34152;SDS011;20426;48.372;10.888;2024-01-06T00:46:08;2.60;;;2.13;;
34152;SDS011;20426;48.372;10.888;2024-01-06T00:46:39;3.67;;;2.85;;
34152;SDS011;20426;48.372;10.888;2024-01-06T00:47:09;5.55;;;2.42;;
34152;SDS011;20426;48.372;10.888;2024-01-06T00:47:40;3.75;;;2.60;;
34152;SDS011;20426;48.372;10.888;2024-01-06T00:48:11;4.10;;;2.28;;
34152;SDS011;20426;48.372;10.888;2024-01-06T00:48:42;5.10;;;2.35;;
34152;SDS011;20426;48.372;10.888;2024-01-06T00:49:12;3.15;;;2.30;;
34152;SDS011;20426;48.372;10.888;2024-01-06T00:49:43;4.45;;;2.25;;
34152;SDS011;20426;48.372;10.888;2024-01-06T00:50:15;4.32;;;2.40;;
34152;SDS011;20426;48.372;10.888;2024-01-06T00:50:47;2.47;;;2.28;;
34152;SDS011;20426;48.372;10.888;2024-01-06T00:51:17;3.03;;;2.53;;
34152;SDS011;20426;48.372;10.888;2024-01-06T00:51:48;3.10;;;2.30;;
34152;SDS011;20426;48.372;10.888;2024-01-06T00:52:18;3.50;;;2.78;;
34152;SDS011;20426;48.372;10.888;2024-01-06T00:52:49;6.07;;;2.67;;
34152;SDS011;20426;48.372;10.888;2024-01-06T00:53:22;5.30;;;2.80;;
34152;SDS011;20426;48.372;10.888;2024-01-06T00:53:53;5.22;;;2.65;;
34152;SDS011;20426;48.372;10.888;2024-01-06T00:54:23;4.18;;;3.63;;
34152;SDS011;20426;48.372;10.888;2024-01-06T00:54:54;3.17;;;2.58;;
34152;SDS011;20426;48.372;10.888;2024-01-06T00:55:25;4.20;;;2.55;;
34152;SDS011;20426;48.372;10.888;2024-01-06T00:55:55;3.53;;;2.75;;
34152;SDS011;20426;48.372;10.888;2024-01-06T00:56:26;5.03;;;2.72;;
34152;SDS011;20426;48.372;10.888;2024-01-06T00:56:57;5.72;;;2.97;;
34152;SDS011;20426;48.372;10.888;2024-01-06T00:57:28;4.40;;;2.35;;
34152;SDS011;20426;48.372;10.888;2024-01-06T00:57:58;4.32;;;3.00;;
34152;SDS011;20426;48.372;10.888;2024-01-06T00:58:29;4.13;;;2.60;;
34152;SDS011;20426;48.372;10.888;2024-01-06T00:59:00;2.58;;;2.28;;
34152;SDS011;20426;48.372;10.888;2024-01-06T00:59:30;3.63;;;2.90;;
34152;SDS011;20426;48.372;10.888;2024-01-06T01:00:01;4.00;;;2.50;;
34152;SDS011;20426;48.372;10.888;2024-01-06T01:00:33;3.75;;;2.80;;
34152;SDS011;20426;48.372;10.888;2024-01-06T01:01:04;3.50;;;2.47;;
34152;SDS011;20426;48.372;10.888;2024-01-06T01:01:34;4.18;;;2.88;;
34152;SDS011;20426;48.372;10.888;2024-01-06T01:02:05;6.03;;;3.08;;
34152;SDS011;20426;48.372;10.888;2024-01-06T01:02:36;5.20;;;2.55;;
34152;SDS011;20426;48.372;10.888;2024-01-06T01:03:06;2.90;;;2.60;;
34152;SDS011;20426;48.372;10.888;2024-01-06T01:03:37;6.18;;;2.95;;
34152;SDS011;20426;48.372;10.888;2024-01-06T01:04:08;2.65;;;2.35;;
34152;SDS011;20426;48.372;10.888;2024-01-06T01:04:38;3.80;;;2.88;;
34152;SDS011;20426;48.372;10.888;2024-01-06T01:05:09;4.35;;;2.38;;
34152;SDS011;20426;48.372;10.888;2024-01-06T01:05:40;3.40;;;2.50;;
34152;SDS011;20426;48.372;10.888;2024-01-06T01:06:10;4.57;;;3.05;;
34152;SDS011;20426;48.372;10.888;2024-01-06T01:06:41;3.50;;;2.40;;
34152;SDS011;20426;48.372;10.888;2024-01-06T01:07:12;3.08;;;2.67;;
34152;SDS011;20426;48.372;10.888;2024-01-06T01:07:43;3.67;;;2.83;;
34152;SDS011;20426;48.372;10.888;2024-01-06T01:08:13;3.83;;;3.05;;
34152;SDS011;20426;48.372;10.888;2024-01-06T01:08:44;4.30;;;3.47;;
34152;SDS011;20426;48.372;10.888;2024-01-06T01:09:15;4.55;;;3.55;;
34152;SDS011;20426;48.372;10.888;2024-01-06T01:09:46;4.35;;;3.08;;
34152;SDS011;20426;48.372;10.888;2024-01-06T01:10:16;5.70;;;3.22;;
34152;SDS011;20426;48.372;10.888;2024-01-06T01:10:47;4.00;;;2.88;;
34152;SDS011;20426;48.372;10.888;2024-01-06T01:11:18;6.05;;;2.65;;
34152;SDS011;20426;48.372;10.888;2024-01-06T01:11:49;3.33;;;2.78;;
34152;SDS011;20426;48.372;10.888;2024-01-06T01:12:20;5.05;;;3.25;;
34152;SDS011;20426;48.372;10.888;2024-01-06T01:12:51;3.85;;;2.90;;
34152;SDS011;20426;48.372;10.888;2024-01-06T01:13:21;4.43;;;3.08;;
34152;SDS011;20426;48.372;10.888;2024-01-06T01:13:52;4.22;;;3.10;;
34152;SDS011;20426;48.372;10.888;2024-01-06T01:14:23;4.82;;;3.28;;
34152;SDS011;20426;48.372;10.888;2024-01-06T01:14:53;5.32;;;3.05;;
34152;SDS011;20426;48.372;10.888;2024-01-06T01:15:24;4.30;;;3.13;;
34152;SDS011;20426;48.372;10.888;2024-01-06T01:15:55;3.65;;;2.95;;
34152;SDS011;20426;48.372;10.888;2024-01-06T01:16:26;4.97;;;2.88;;
34152;SDS011;20426;48.372;10.888;2024-01-06T01:16:57;7.35;;;4.20;;
34152;SDS011;20426;48.372;10.888;2024-01-06T01:17:27;4.20;;;3.03;;
34152;SDS011;20426;48.372;10.888;2024-01-06T01:17:58;3.58;;;2.60;;
34152;SDS011;20426;48.372;10.888;2024-01-06T01:18:29;5.53;;;3.78;;
34152;SDS011;20426;48.372;10.888;2024-01-06T01:18:59;6.43;;;3.22;;
34152;SDS011;20426;48.372;10.888;2024-01-06T01:19:32;5.18;;;3.08;;
34152;SDS011;20426;48.372;10.888;2024-01-06T01:20:02;3.53;;;3.00;;
34152;SDS011;20426;48.372;10.888;2024-01-06T01:20:33;4.03;;;3.20;;
34152;SDS011;20426;48.372;10.888;2024-01-06T01:21:04;3.22;;;2.50;;
34152;SDS011;20426;48.372;10.888;2024-01-06T01:21:35;6.72;;;3.35;;
34152;SDS011;20426;48.372;10.888;2024-01-06T01:22:05;4.85;;;3.00;;
34152;SDS011;20426;48.372;10.888;2024-01-06T01:22:36;3.10;;;2.80;;
34152;SDS011;20426;48.372;10.888;2024-01-06T01:23:07;4.38;;;3.08;;
34152;SDS011;20426;48.372;10.888;2024-01-06T01:23:38;5.35;;;3.50;;
34152;SDS011;20426;48.372;10.888;2024-01-06T01:24:09;7.03;;;3.53;;
34152;SDS011;20426;48.372;10.888;2024-01-06T01:24:39;4.60;;;3.85;;
34152;SDS011;20426;48.372;10.888;2024-01-06T01:25:10;4.38;;;3.25;;
34152;SDS011;20426;48.372;10.888;2024-01-06T01:25:42;6.63;;;3.53;;
34152;SDS011;20426;48.372;10.888;2024-01-06T01:26:13;4.40;;;3.38;;
34152;SDS011;20426;48.372;10.888;2024-01-06T01:26:44;4.88;;;3.30;;
34152;SDS011;20426;48.372;10.888;2024-01-06T01:27:14;4.68;;;3.45;;
34152;SDS011;20426;48.372;10.888;2024-01-06T01:27:45;4.22;;;3.13;;
34152;SDS011;20426;48.372;10.888;2024-01-06T01:28:16;5.03;;;3.35;;
34152;SDS011;20426;48.372;10.888;2024-01-06T01:28:46;5.75;;;2.95;;
34152;SDS011;20426;48.372;10.888;2024-01-06T01:29:17;5.05;;;3.08;;
34152;SDS011;20426;48.372;10.888;2024-01-06T01:29:50;4.70;;;3.28;;
34152;SDS011;20426;48.372;10.888;2024-01-06T01:30:22;6.45;;;4.05;;
34152;SDS011;20426;48.372;10.888;2024-01-06T01:30:53;5.47;;;3.63;;
34152;SDS011;20426;48.372;10.888;2024-01-06T01:31:24;4.85;;;3.45;;
34152;SDS011;20426;48.372;10.888;2024-01-06T01:31:54;4.80;;;3.45;;
34152;SDS011;20426;48.372;10.888;2024-01-06T01:32:25;4.78;;;3.00;;
34152;SDS011;20426;48.372;10.888;2024-01-06T01:32:56;6.75;;;3.83;;
34152;SDS011;20426;48.372;10.888;2024-01-06T01:33:26;6.45;;;3.63;;
34152;SDS011;20426;48.372;10.888;2024-01-06T01:33:57;3.40;;;3.10;;
34152;SDS011;20426;48.372;10.888;2024-01-06T01:34:28;6.20;;;3.80;;
34152;SDS011;20426;48.372;10.888;2024-01-06T01:34:58;4.82;;;3.30;;
34152;SDS011;20426;48.372;10.888;2024-01-06T01:35:29;5.03;;;3.75;;
34152;SDS011;20426;48.372;10.888;2024-01-06T01:36:00;4.55;;;2.85;;
34152;SDS011;20426;48.372;10.888;2024-01-06T01:36:30;6.40;;;3.50;;
34152;SDS011;20426;48.372;10.888;2024-01-06T01:37:01;5.20;;;3.40;;
34152;SDS011;20426;48.372;10.888;2024-01-06T01:37:32;3.78;;;3.13;;
34152;SDS011;20426;48.372;10.888;2024-01-06T01:38:03;5.15;;;3.15;;
34152;SDS011;20426;48.372;10.888;2024-01-06T01:38:33;5.40;;;3.20;;
34152;SDS011;20426;48.372;10.888;2024-01-06T01:39:04;4.28;;;3.03;;
34152;SDS011;20426;48.372;10.888;2024-01-06T01:39:34;5.07;;;3.35;;
34152;SDS011;20426;48.372;10.888;2024-01-06T01:40:05;4.13;;;3.03;;
34152;SDS011;20426;48.372;10.888;2024-01-06T01:40:36;4.20;;;2.88;;
34152;SDS011;20426;48.372;10.888;2024-01-06T01:41:07;3.95;;;2.80;;
34152;SDS011;20426;48.372;10.888;2024-01-06T01:41:39;3.53;;;2.88;;
34152;SDS011;20426;48.372;10.888;2024-01-06T01:42:10;3.90;;;2.88;;
34152;SDS011;20426;48.372;10.888;2024-01-06T01:42:42;5.13;;;2.95;;
34152;SDS011;20426;48.372;10.888;2024-01-06T01:43:17;4.43;;;3.05;;
34152;SDS011;20426;48.372;10.888;2024-01-06T01:43:48;4.78;;;3.22;;
34152;SDS011;20426;48.372;10.888;2024-01-06T01:44:19;6.60;;;3.45;;
34152;SDS011;20426;48.372;10.888;2024-01-06T01:44:49;4.65;;;3.45;;
34152;SDS011;20426;48.372;10.888;2024-01-06T01:45:20;3.83;;;2.60;;
34152;SDS011;20426;48.372;10.888;2024-01-06T01:45:52;4.50;;;3.20;;
34152;SDS011;20426;48.372;10.888;2024-01-06T01:46:27;6.35;;;3.38;;
34152;SDS011;20426;48.372;10.888;2024-01-06T01:46:59;5.53;;;3.60;;
34152;SDS011;20426;48.372;10.888;2024-01-06T01:47:30;6.90;;;4.15;;
34152;SDS011;20426;48.372;10.888;2024-01-06T01:48:00;5.18;;;3.67;;
34152;SDS011;20426;48.372;10.888;2024-01-06T01:48:31;5.32;;;4.03;;
34152;SDS011;20426;48.372;10.888;2024-01-06T01:49:04;5.20;;;4.10;;
34152;SDS011;20426;48.372;10.888;2024-01-06T01:49:35;6.07;;;3.53;;
34152;SDS011;20426;48.372;10.888;2024-01-06T01:50:06;5.60;;;3.97;;
34152;SDS011;20426;48.372;10.888;2024-01-06T01:50:38;5.63;;;3.85;;
34152;SDS011;20426;48.372;10.888;2024-01-06T01:51:08;6.03;;;3.90;;
34152;SDS011;20426;48.372;10.888;2024-01-06T01:51:39;6.90;;;4.00;;
34152;SDS011;20426;48.372;10.888;2024-01-06T01:52:10;5.60;;;3.72;;
34152;SDS011;20426;48.372;10.888;2024-01-06T01:52:41;4.55;;;3.30;;
34152;SDS011;20426;48.372;10.888;2024-01-06T01:53:12;7.43;;;3.65;;
34152;SDS011;20426;48.372;10.888;2024-01-06T01:53:44;7.00;;;3.97;;
34152;SDS011;20426;48.372;10.888;2024-01-06T01:54:15;6.05;;;3.58;;
34152;SDS011;20426;48.372;10.888;2024-01-06T01:54:46;5.70;;;3.88;;
34152;SDS011;20426;48.372;10.888;2024-01-06T01:55:17;5.95;;;3.92;;
34152;SDS011;20426;48.372;10.888;2024-01-06T01:55:48;6.25;;;3.78;;
34152;SDS011;20426;48.372;10.888;2024-01-06T01:56:19;5.65;;;3.92;;
34152;SDS011;20426;48.372;10.888;2024-01-06T01:56:51;6.70;;;3.35;;
34152;SDS011;20426;48.372;10.888;2024-01-06T01:57:21;5.35;;;3.92;;
34152;SDS011;20426;48.372;10.888;2024-01-06T01:57:54;7.68;;;3.78;;
34152;SDS011;20426;48.372;10.888;2024-01-06T01:58:25;4.07;;;2.97;;
34152;SDS011;20426;48.372;10.888;2024-01-06T01:58:56;8.23;;;4.03;;
34152;SDS011;20426;48.372;10.888;2024-01-06T01:59:27;7.30;;;3.72;;
34152;SDS011;20426;48.372;10.888;2024-01-06T01:59:58;6.45;;;3.78;;
34152;SDS011;20426;48.372;10.888;2024-01-06T02:00:30;7.95;;;3.97;;
34152;SDS011;20426;48.372;10.888;2024-01-06T02:01:01;5.57;;;3.22;;
34152;SDS011;20426;48.372;10.888;2024-01-06T02:01:32;8.43;;;4.68;;
34152;SDS011;20426;48.372;10.888;2024-01-06T02:02:03;6.55;;;3.75;;
34152;SDS011;20426;48.372;10.888;2024-01-06T02:02:34;6.80;;;3.90;;
34152;SDS011;20426;48.372;10.888;2024-01-06T02:03:05;4.47;;;3.50;;
34152;SDS011;20426;48.372;10.888;2024-01-06T02:03:37;10.98;;;4.05;;
34152;SDS011;20426;48.372;10.888;2024-01-06T02:04:10;6.38;;;4.30;;
34152;SDS011;20426;48.372;10.888;2024-01-06T02:04:42;6.07;;;3.65;;
34152;SDS011;20426;48.372;10.888;2024-01-06T02:05:15;8.30;;;4.38;;
34152;SDS011;20426;48.372;10.888;2024-01-06T02:05:45;5.35;;;3.60;;
34152;SDS011;20426;48.372;10.888;2024-01-06T02:06:16;4.97;;;3.90;;
34152;SDS011;20426;48.372;10.888;2024-01-06T02:06:46;7.40;;;4.53;;
34152;SDS011;20426;48.372;10.888;2024-01-06T02:07:17;6.43;;;4.30;;
34152;SDS011;20426;48.372;10.888;2024-01-06T02:07:48;5.57;;;3.47;;
34152;SDS011;20426;48.372;10.888;2024-01-06T02:08:21;6.05;;;3.28;;
34152;SDS011;20426;48.372;10.888;2024-01-06T02:08:52;5.20;;;3.83;;
34152;SDS011;20426;48.372;10.888;2024-01-06T02:09:23;5.72;;;3.85;;
34152;SDS011;20426;48.372;10.888;2024-01-06T02:09:57;8.00;;;3.85;;
34152;SDS011;20426;48.372;10.888;2024-01-06T02:10:27;7.60;;;4.80;;
34152;SDS011;20426;48.372;10.888;2024-01-06T02:10:59;7.28;;;4.10;;
34152;SDS011;20426;48.372;10.888;2024-01-06T02:11:29;7.80;;;3.78;;
34152;SDS011;20426;48.372;10.888;2024-01-06T02:12:00;4.60;;;3.70;;
34152;SDS011;20426;48.372;10.888;2024-01-06T02:12:31;5.00;;;4.03;;
34152;SDS011;20426;48.372;10.888;2024-01-06T02:13:08;6.35;;;3.80;;
34152;SDS011;20426;48.372;10.888;2024-01-06T02:13:40;4.40;;;3.33;;
34152;SDS011;20426;48.372;10.888;2024-01-06T02:14:10;5.43;;;3.97;;
34152;SDS011;20426;48.372;10.888;2024-01-06T02:14:41;7.55;;;3.85;;
34152;SDS011;20426;48.372;10.888;2024-01-06T02:15:13;5.63;;;4.13;;
34152;SDS011;20426;48.372;10.888;2024-01-06T02:15:44;3.95;;;3.22;;
34152;SDS011;20426;48.372;10.888;2024-01-06T02:16:15;4.07;;;2.72;;
34152;SDS011;20426;48.372;10.888;2024-01-06T02:16:46;5.35;;;2.88;;
34152;SDS011;20426;48.372;10.888;2024-01-06T02:17:16;3.88;;;2.33;;
34152;SDS011;20426;48.372;10.888;2024-01-06T02:17:47;4.30;;;3.22;;
34152;SDS011;20426;48.372;10.888;2024-01-06T02:18:18;4.00;;;2.45;;
34152;SDS011;20426;48.372;10.888;2024-01-06T02:18:48;5.32;;;2.95;;
34152;SDS011;20426;48.372;10.888;2024-01-06T02:19:19;3.40;;;2.58;;
34152;SDS011;20426;48.372;10.888;2024-01-06T02:19:50;4.18;;;2.88;;
34152;SDS011;20426;48.372;10.888;2024-01-06T02:20:21;4.72;;;2.95;;
34152;SDS011;20426;48.372;10.888;2024-01-06T02:20:55;3.92;;;3.13;;
34152;SDS011;20426;48.372;10.888;2024-01-06T02:21:28;3.10;;;2.42;;
34152;SDS011;20426;48.372;10.888;2024-01-06T02:22:01;5.07;;;3.10;;
34152;SDS011;20426;48.372;10.888;2024-01-06T02:22:32;3.92;;;2.63;;
34152;SDS011;20426;48.372;10.888;2024-01-06T02:23:04;2.67;;;2.25;;
34152;SDS011;20426;48.372;10.888;2024-01-06T02:23:35;4.47;;;2.75;;
34152;SDS011;20426;48.372;10.888;2024-01-06T02:24:07;3.70;;;2.58;;
34152;SDS011;20426;48.372;10.888;2024-01-06T02:24:37;2.72;;;2.28;;
34152;SDS011;20426;48.372;10.888;2024-01-06T02:25:08;2.53;;;2.28;;
34152;SDS011;20426;48.372;10.888;2024-01-06T02:25:42;2.80;;;2.35;;
34152;SDS011;20426;48.372;10.888;2024-01-06T02:26:13;3.72;;;2.60;;
34152;SDS011;20426;48.372;10.888;2024-01-06T02:26:45;4.43;;;3.00;;
34152;SDS011;20426;48.372;10.888;2024-01-06T02:27:15;4.03;;;2.50;;
34152;SDS011;20426;48.372;10.888;2024-01-06T02:27:46;4.57;;;3.20;;
34152;SDS011;20426;48.372;10.888;2024-01-06T02:28:17;4.10;;;2.60;;
34152;SDS011;20426;48.372;10.888;2024-01-06T02:28:47;5.28;;;2.63;;
34152;SDS011;20426;48.372;10.888;2024-01-06T02:29:19;3.30;;;2.25;;
34152;SDS011;20426;48.372;10.888;2024-01-06T02:29:50;3.28;;;2.80;;
34152;SDS011;20426;48.372;10.888;2024-01-06T02:30:20;4.78;;;2.58;;
34152;SDS011;20426;48.372;10.888;2024-01-06T02:30:51;3.55;;;3.03;;
34152;SDS011;20426;48.372;10.888;2024-01-06T02:31:22;4.43;;;2.72;;
34152;SDS011;20426;48.372;10.888;2024-01-06T02:31:52;2.78;;;2.58;;
34152;SDS011;20426;48.372;10.888;2024-01-06T02:32:23;4.15;;;2.70;;
34152;SDS011;20426;48.372;10.888;2024-01-06T02:32:53;2.45;;;2.15;;
34152;SDS011;20426;48.372;10.888;2024-01-06T02:33:24;3.10;;;2.22;;
34152;SDS011;20426;48.372;10.888;2024-01-06T02:33:55;3.13;;;2.42;;
34152;SDS011;20426;48.372;10.888;2024-01-06T02:34:26;4.45;;;2.88;;
34152;SDS011;20426;48.372;10.888;2024-01-06T02:34:56;2.63;;;1.90;;
34152;SDS011;20426;48.372;10.888;2024-01-06T02:35:27;3.05;;;2.13;;
34152;SDS011;20426;48.372;10.888;2024-01-06T02:35:58;3.10;;;2.50;;
34152;SDS011;20426;48.372;10.888;2024-01-06T02:36:28;3.70;;;2.20;;
34152;SDS011;20426;48.372;10.888;2024-01-06T02:36:59;3.30;;;2.03;;
34152;SDS011;20426;48.372;10.888;2024-01-06T02:37:30;3.00;;;2.00;;
34152;SDS011;20426;48.372;10.888;2024-01-06T02:38:00;3.33;;;2.70;;
34152;SDS011;20426;48.372;10.888;2024-01-06T02:38:31;3.25;;;2.50;;
34152;SDS011;20426;48.372;10.888;2024-01-06T02:39:02;3.33;;;1.95;;
34152;SDS011;20426;48.372;10.888;2024-01-06T02:39:33;3.13;;;1.73;;
34152;SDS011;20426;48.372;10.888;2024-01-06T02:40:04;3.70;;;2.58;;
34152;SDS011;20426;48.372;10.888;2024-01-06T02:40:35;2.95;;;2.50;;
34152;SDS011;20426;48.372;10.888;2024-01-06T02:41:05;3.83;;;2.45;;
34152;SDS011;20426;48.372;10.888;2024-01-06T02:41:36;4.38;;;2.42;;
34152;SDS011;20426;48.372;10.888;2024-01-06T02:42:07;2.85;;;1.88;;
34152;SDS011;20426;48.372;10.888;2024-01-06T02:42:38;2.30;;;2.00;;
34152;SDS011;20426;48.372;10.888;2024-01-06T02:43:09;4.97;;;2.25;;
34152;SDS011;20426;48.372;10.888;2024-01-06T02:43:40;3.50;;;2.00;;
34152;SDS011;20426;48.372;10.888;2024-01-06T02:44:10;3.65;;;2.55;;
34152;SDS011;20426;48.372;10.888;2024-01-06T02:44:43;4.70;;;2.88;;
34152;SDS011;20426;48.372;10.888;2024-01-06T02:45:14;4.07;;;2.13;;
34152;SDS011;20426;48.372;10.888;2024-01-06T02:45:45;2.90;;;1.95;;
34152;SDS011;20426;48.372;10.888;2024-01-06T02:46:16;3.72;;;2.20;;
34152;SDS011;20426;48.372;10.888;2024-01-06T02:46:47;2.70;;;1.98;;
34152;SDS011;20426;48.372;10.888;2024-01-06T02:47:18;2.78;;;2.10;;
34152;SDS011;20426;48.372;10.888;2024-01-06T02:47:48;5.45;;;2.20;;
34152;SDS011;20426;48.372;10.888;2024-01-06T02:48:19;3.17;;;2.22;;
34152;SDS011;20426;48.372;10.888;2024-01-06T02:48:50;4.07;;;2.97;;
34152;SDS011;20426;48.372;10.888;2024-01-06T02:49:20;2.45;;;2.22;;
34152;SDS011;20426;48.372;10.888;2024-01-06T02:49:51;3.63;;;2.15;;
34152;SDS011;20426;48.372;10.888;2024-01-06T02:50:22;4.43;;;3.22;;
34152;SDS011;20426;48.372;10.888;2024-01-06T02:50:52;3.35;;;2.50;;
34152;SDS011;20426;48.372;10.888;2024-01-06T02:51:23;3.13;;;2.28;;
34152;SDS011;20426;48.372;10.888;2024-01-06T02:51:54;3.92;;;2.45;;
34152;SDS011;20426;48.372;10.888;2024-01-06T02:52:24;6.47;;;2.17;;
34152;SDS011;20426;48.372;10.888;2024-01-06T02:52:55;3.70;;;2.25;;
34152;SDS011;20426;48.372;10.888;2024-01-06T02:53:26;3.08;;;2.58;;
34152;SDS011;20426;48.372;10.888;2024-01-06T02:53:56;3.67;;;2.53;;
34152;SDS011;20426;48.372;10.888;2024-01-06T02:54:27;3.50;;;2.70;;
34152;SDS011;20426;48.372;10.888;2024-01-06T02:54:58;3.80;;;2.50;;
34152;SDS011;20426;48.372;10.888;2024-01-06T02:55:29;3.17;;;2.47;;
34152;SDS011;20426;48.372;10.888;2024-01-06T02:55:59;4.78;;;2.88;;
34152;SDS011;20426;48.372;10.888;2024-01-06T02:56:30;4.00;;;2.45;;
34152;SDS011;20426;48.372;10.888;2024-01-06T02:57:01;3.42;;;2.15;;
34152;SDS011;20426;48.372;10.888;2024-01-06T02:57:31;4.13;;;2.28;;
34152;SDS011;20426;48.372;10.888;2024-01-06T02:58:02;3.85;;;3.03;;
34152;SDS011;20426;48.372;10.888;2024-01-06T02:58:33;2.80;;;2.40;;
34152;SDS011;20426;48.372;10.888;2024-01-06T02:59:03;4.47;;;2.67;;
34152;SDS011;20426;48.372;10.888;2024-01-06T02:59:34;3.63;;;1.90;;
34152;SDS011;20426;48.372;10.888;2024-01-06T03:00:05;3.40;;;2.28;;
34152;SDS011;20426;48.372;10.888;2024-01-06T03:00:36;3.20;;;2.33;;
34152;SDS011;20426;48.372;10.888;2024-01-06T03:01:07;2.38;;;1.98;;
34152;SDS011;20426;48.372;10.888;2024-01-06T03:01:38;2.45;;;2.22;;
34152;SDS011;20426;48.372;10.888;2024-01-06T03:02:08;3.60;;;2.55;;
34152;SDS011;20426;48.372;10.888;2024-01-06T03:02:39;3.13;;;2.47;;
34152;SDS011;20426;48.372;10.888;2024-01-06T03:03:12;3.15;;;1.83;;
34152;SDS011;20426;48.372;10.888;2024-01-06T03:03:43;2.55;;;2.00;;